Time;durP1;ratioP1;P1;durP2;ratioP2;P2;SDS_P1;SDS_P2;PMS_P1;PMS_P2;Temp;Humidity;BMP_temperature;BMP_pressure;BME280_temperature;BME280_humidity;BME280_pressure;Samples;Min_cycle;Max_cycle;Signal;HPM_P1;HPM_P2
2021/07/17 07:17:44;;;;;;;16.20;12.65;;;;;;;;;;6081274;22;1999099;-57
2021/07/17 07:20:16;;;;;;;13.75;10.32;;;;;;;;;;6210428;22;104684;-58
2021/07/17 07:22:45;;;;;;;15.25;11.35;;;;;;;;;;6210684;22;105704;-60
2021/07/17 07:25:13;;;;;;;12.25;10.85;;;;;;;;;;6210408;22;105281;-59
2021/07/17 07:27:45;;;;;;;13.00;10.40;;;;;;;;;;6211695;22;104779;-59
2021/07/17 07:30:15;;;;;;;12.23;10.88;;;;;;;;;;6209970;22;104945;-57
2021/07/17 07:32:49;;;;;;;11.27;9.32;;;;;;;;;;6180793;22;105731;-59
2021/07/17 07:35:19;;;;;;;10.90;9.80;;;;;;;;;;6179199;22;106004;-63
2021/07/17 07:37:50;;;;;;;11.98;10.18;;;;;;;;;;6179034;22;104680;-62
2021/07/17 07:40:19;;;;;;;13.55;10.30;;;;;;;;;;6179784;22;104907;-53
2021/07/17 07:42:48;;;;;;;12.05;8.90;;;;;;;;;;6180445;22;106862;-54
2021/07/17 07:45:16;;;;;;;10.33;7.93;;;;;;;;;;6180197;22;106033;-55
2021/07/17 07:47:46;;;;;;;9.57;7.35;;;;;;;;;;6178037;22;104765;-55
2021/07/17 07:50:15;;;;;;;10.18;8.63;;;;;;;;;;6178717;22;104833;-55
2021/07/17 07:52:44;;;;;;;14.83;10.30;;;;;;;;;;6180549;22;106123;-50
2021/07/17 07:55:17;;;;;;;14.43;10.10;;;;;;;;;;6180061;22;106302;-53
2021/07/17 07:57:48;;;;;;;13.20;10.43;;;;;;;;;;6180267;22;104649;-53
2021/07/17 08:00:18;;;;;;;12.63;10.00;;;;;;;;;;6179411;22;104718;-55
2021/07/17 08:02:55;;;;;;;9.25;8.32;;;;;;;;;;6176602;22;105735;-55
2021/07/17 08:05:25;;;;;;;8.38;7.20;;;;;;;;;;6179287;22;106068;-54
2021/07/17 08:07:55;;;;;;;9.10;7.50;;;;;;;;;;6177211;22;104916;-55
2021/07/17 08:10:25;;;;;;;10.80;9.50;;;;;;;;;;6179921;22;104938;-55
2021/07/17 08:12:54;;;;;;;;;;;;;;;;;;6178851;22;105868;-37
2021/07/17 08:15:23;;;;;;;11.65;9.23;;;;;;;;;;6178254;22;133881;-32
2021/07/17 08:17:51;;;;;;;11.63;8.30;;;;;;;;;;6175224;22;105288;-36
2021/07/17 08:20:19;;;;;;;13.13;10.32;;;;;;;;;;6173386;22;104751;-31
2021/07/17 08:22:47;;;;;;;12.63;9.30;;;;;;;;;;6146325;22;106596;-33
2021/07/17 08:25:15;;;;;;;16.58;10.38;;;;;;;;;;6172456;22;106100;-32
2021/07/17 08:27:45;;;;;;;13.00;10.00;;;;;;;;;;6172243;22;105066;-34
2021/07/17 08:30:15;;;;;;;12.93;10.35;;;;;;;;;;6171762;22;104980;-34
2021/07/17 08:32:53;;;;;;;14.77;11.35;;;;;;;;;;6147079;22;105966;-32
2021/07/17 08:35:22;;;;;;;;;;;;;;;;;;6172566;22;107356;-33
2021/07/17 08:37:51;;;;;;;24.48;12.77;;;;;;;;;;6171057;22;129681;-33
2021/07/17 08:40:20;;;;;;;32.72;15.98;;;;;;;;;;6172369;22;104875;-36
2021/07/17 08:42:51;;;;;;;30.83;14.07;;;;;;;;;;6172079;22;106104;-35
2021/07/17 08:45:21;;;;;;;21.83;11.32;;;;;;;;;;6171900;22;106072;-34
2021/07/17 08:47:54;;;;;;;26.50;13.95;;;;;;;;;;6172839;22;105067;-71
2021/07/17 08:50:25;;;;;;;21.70;13.23;;;;;;;;;;6146686;22;105070;-62
2021/07/17 08:52:56;;;;;;;;;;;;;;;;;;6146898;22;105851;-61
2021/07/17 08:55:28;;;;;;;20.70;12.68;;;;;;;;;;6144722;22;135573;-70
2021/07/17 08:57:57;;;;;;;23.95;13.38;;;;;;;;;;6172667;22;104998;-68
2021/07/17 09:00:27;;;;;;;21.83;11.90;;;;;;;;;;6173008;22;104775;-69
2021/07/17 09:03:00;;;;;;;21.67;12.43;;;;;;;;;;6173109;22;104939;-62
2021/07/17 10:56:53;;;;;;;9.10;8.20;;;;;;;;;;6016403;22;108437;31
2021/07/17 10:59:22;;;;;;;9.07;8.13;;;;;;;;;;6143023;22;104810;-85
2021/07/17 11:01:56;;;;;;;9.05;8.13;;;;;;;;;;6139582;22;107822;-90
2021/07/17 11:04:35;;;;;;;14.07;8.38;;;;;;;;;;6142038;22;110380;-79
2021/07/17 11:07:17;;;;;;;13.05;8.73;;;;;;;;;;6141107;22;105131;-62
2021/07/17 11:09:54;;;;;;;13.50;8.48;;;;;;;;;;6141955;23;104747;-70
2021/07/17 15:53:04;;;;;;;10.05;7.20;;;;;;;;;;6021210;22;107422;31
2021/07/17 15:55:32;;;;;;;10.60;7.10;;;;;;;;;;6144061;22;104816;-48
2021/07/17 15:58:08;;;;;;;12.95;7.25;;;;;;;;;;6143553;22;107422;-36
2021/07/17 16:00:37;;;;;;;16.13;8.10;;;;;;;;;;6116117;22;106101;-36
2021/07/17 16:03:09;;;;;;;14.25;7.55;;;;;;;;;;6118095;22;104963;-69
2021/07/17 19:57:28;;;;;;;13.48;7.65;;;;;;;;;;6020237;22;108248;-32
2021/07/17 19:59:57;;;;;;;15.05;8.20;;;;;;;;;;6170754;22;105096;-32
2021/07/17 20:02:26;;;;;;;13.63;7.50;;;;;;;;;;6171847;22;105245;-32
2021/07/17 20:04:55;;;;;;;11.00;7.32;;;;;;;;;;6170540;22;105682;-32
2021/07/17 20:07:26;;;;;;;10.40;7.57;;;;;;;;;;6170771;22;106241;-33
2021/07/17 20:09:56;;;;;;;9.00;7.53;;;;;;;;;;6172097;22;104725;-33
2021/07/17 20:12:23;;;;;;;9.02;7.00;;;;;;;;;;6171742;22;104847;-32
2021/07/17 20:14:51;;;;;;;8.80;6.93;;;;;;;;;;6173746;22;106767;-25
2021/07/17 20:17:20;;;;;;;10.55;7.00;;;;;;;;;;6172051;22;106219;-26
2021/07/17 20:19:49;;;;;;;9.23;6.60;;;;;;;;;;6171480;22;104849;-26
2021/07/17 20:22:18;;;;;;;9.85;7.15;;;;;;;;;;6171979;22;104983;-26
2021/07/17 20:24:46;;;;;;;9.73;6.90;;;;;;;;;;6173638;22;107039;-64
2021/07/17 20:27:15;;;;;;;9.93;6.60;;;;;;;;;;6171507;22;106041;-76
2021/07/17 20:29:44;;;;;;;9.52;6.45;;;;;;;;;;6174590;22;104739;-90
2021/07/17 20:32:14;;;;;;;11.68;6.90;;;;;;;;;;6172203;22;105206;-89
2021/07/17 22:38:40;;;;;;;;;;;;;;;;;;3550968;39;104833;-40
2021/07/17 22:41:07;;;;;;;;;;;;;;;;;;3550326;39;128791;-40
2021/07/17 22:43:34;;;;;;;8.82;6.40;;;;;;;;;;3540471;39;134619;-43
2021/07/17 22:46:02;;;;;;;9.48;6.25;;;;;;;;;;3540273;39;106364;-41
2021/07/17 22:48:30;;;;;;;8.77;6.80;;;;;;;;;;3539830;39;104946;-41
2021/07/17 22:51:00;;;;;;;11.48;6.20;;;;;;;;;;3539581;39;104930;-35
2021/07/17 22:53:27;;;;;;;7.45;6.57;;;;;;;;;;3528577;39;105830;-38
2021/07/17 22:55:56;;;;;;;10.07;6.20;;;;;;;;;;3534852;39;106153;-37
2021/07/17 22:58:25;;;;;;;9.43;6.70;;;;;;;;;;3538531;39;104919;-33
2021/07/17 23:00:55;;;;;;;7.93;6.28;;;;;;;;;;3538876;39;104884;-38
2021/07/17 23:03:23;;;;;;;10.20;6.80;;;;;;;;;;3538483;39;105931;-36
2021/07/17 23:05:53;;;;;;;7.97;5.93;;;;;;;;;;3538220;39;106115;-37
2021/07/17 23:08:22;;;;;;;7.28;6.57;;;;;;;;;;3538312;39;105180;-37
2021/07/17 23:10:52;;;;;;;7.35;6.13;;;;;;;;;;3537930;39;104814;-38
2021/07/17 23:13:21;;;;;;;6.80;6.03;;;;;;;;;;3537929;39;105763;-36
2021/07/17 23:15:50;;;;;;;7.82;6.50;;;;;;;;;;3537848;39;107221;-38
2021/07/17 23:18:20;;;;;;;6.78;6.00;;;;;;;;;;3537994;39;104962;-38
2021/07/17 23:20:49;;;;;;;7.80;6.50;;;;;;;;;;3537834;39;104890;-35
2021/07/17 23:23:19;;;;;;;8.43;6.50;;;;;;;;;;3537994;39;106002;-37
2021/07/17 23:25:49;;;;;;;8.67;6.30;;;;;;;;;;3538331;39;106177;-34
2021/07/17 23:28:17;;;;;;;8.02;6.35;;;;;;;;;;3538211;39;104834;-39
2021/07/17 23:30:47;;;;;;;8.15;6.07;;;;;;;;;;3538389;39;105109;-38
2021/07/17 23:33:16;;;;;;;7.55;6.22;;;;;;;;;;3528116;39;106989;-36
2021/07/17 23:35:45;;;;;;;7.55;6.43;;;;;;;;;;3527800;39;106289;-37
2021/07/17 23:38:15;;;;;;;8.40;5.90;;;;;;;;;;3527741;39;104991;-37
2021/07/17 23:40:45;;;;;;;8.48;6.40;;;;;;;;;;3528031;39;104795;-37
2021/07/17 23:43:14;;;;;;;7.00;6.28;;;;;;;;;;3527855;39;105925;-36
2021/07/17 23:45:44;;;;;;;6.90;6.13;;;;;;;;;;3527703;39;106041;-37
2021/07/17 23:48:13;;;;;;;7.10;6.40;;;;;;;;;;3525928;39;104930;-41
2021/07/17 23:50:43;;;;;;;6.75;6.10;;;;;;;;;;3521666;39;104902;-39
2021/07/17 23:53:13;;;;;;;8.88;6.95;;;;;;;;;;3521603;39;105929;-39
2021/07/17 23:55:43;;;;;;;7.10;6.07;;;;;;;;;;3521764;39;106147;-39
2021/07/17 23:58:13;;;;;;;7.13;6.30;;;;;;;;;;3521712;40;104927;-37
